sensor_id;sensor_type;location;lat;lon;timestamp;pressure;altitude;pressure_sealevel;temperature;humidity
49779;BME280;36217;60.232;24.776;2022-07-30T00:02:13;101497.25;;;14.81;77.15
49779;BME280;36217;60.232;24.776;2022-07-30T00:04:39;101497.00;;;14.42;77.94
49779;BME280;36217;60.232;24.776;2022-07-30T00:07:06;101492.81;;;14.65;76.88
49779;BME280;36217;60.232;24.776;2022-07-30T00:09:33;101492.76;;;14.36;77.98
49779;BME280;36217;60.232;24.776;2022-07-30T00:12:00;101492.50;;;14.54;77.14
49779;BME280;36217;60.232;24.776;2022-07-30T00:14:27;101488.40;;;14.46;77.54
49779;BME280;36217;60.232;24.776;2022-07-30T00:16:54;101489.26;;;14.36;77.98
49779;BME280;36217;60.232;24.776;2022-07-30T00:19:21;101491.60;;;14.27;78.09
49779;BME280;36217;60.232;24.776;2022-07-30T00:21:48;101487.50;;;14.29;79.18
49779;BME280;36217;60.232;24.776;2022-07-30T00:24:15;101485.77;;;14.17;80.01
49779;BME280;36217;60.232;24.776;2022-07-30T00:26:42;101483.81;;;14.17;80.22
49779;BME280;36217;60.232;24.776;2022-07-30T00:29:09;101480.81;;;13.84;81.39
49779;BME280;36217;60.232;24.776;2022-07-30T00:31:36;101480.63;;;14.34;79.54
49779;BME280;36217;60.232;24.776;2022-07-30T00:34:03;101480.17;;;14.32;79.62
49779;BME280;36217;60.232;24.776;2022-07-30T00:36:30;101481.04;;;14.47;79.00
49779;BME280;36217;60.232;24.776;2022-07-30T00:38:57;101479.37;;;14.45;78.93
49779;BME280;36217;60.232;24.776;2022-07-30T00:41:24;101477.71;;;14.62;78.23
49779;BME280;36217;60.232;24.776;2022-07-30T00:43:51;101475.57;;;14.59;78.39
49779;BME280;36217;60.232;24.776;2022-07-30T00:46:18;101476.83;;;14.43;78.98
49779;BME280;36217;60.232;24.776;2022-07-30T00:48:45;101476.10;;;14.08;80.19
49779;BME280;36217;60.232;24.776;2022-07-30T00:51:12;101475.51;;;14.39;79.35
49779;BME280;36217;60.232;24.776;2022-07-30T00:53:39;101473.75;;;14.14;79.06
49779;BME280;36217;60.232;24.776;2022-07-30T00:56:06;101472.91;;;14.32;79.60
49779;BME280;36217;60.232;24.776;2022-07-30T00:58:33;101475.59;;;14.36;79.11
49779;BME280;36217;60.232;24.776;2022-07-30T01:00:59;101476.57;;;14.21;79.62
49779;BME280;36217;60.232;24.776;2022-07-30T01:03:26;101470.88;;;14.34;79.16
49779;BME280;36217;60.232;24.776;2022-07-30T01:05:53;101471.92;;;14.17;79.73
49779;BME280;36217;60.232;24.776;2022-07-30T01:08:25;101468.28;;;14.00;80.38
49779;BME280;36217;60.232;24.776;2022-07-30T01:10:52;101467.93;;;13.92;80.72
49779;BME280;36217;60.232;24.776;2022-07-30T01:13:19;101470.82;;;14.29;79.58
49779;BME280;36217;60.232;24.776;2022-07-30T01:15:46;101469.32;;;14.16;79.79
49779;BME280;36217;60.232;24.776;2022-07-30T01:18:18;101468.74;;;13.93;80.36
49779;BME280;36217;60.232;24.776;2022-07-30T01:20:55;101466.57;;;14.08;79.83
49779;BME280;36217;60.232;24.776;2022-07-30T01:23:30;101463.75;;;13.30;81.55
49779;BME280;36217;60.232;24.776;2022-07-30T01:26:04;101467.86;;;14.25;79.10
49779;BME280;36217;60.232;24.776;2022-07-30T01:28:35;101464.36;;;14.00;79.66
49779;BME280;36217;60.232;24.776;2022-07-30T01:31:04;101464.74;;;14.16;78.82
49779;BME280;36217;60.232;24.776;2022-07-30T01:33:34;101464.32;;;13.65;80.76
49779;BME280;36217;60.232;24.776;2022-07-30T01:36:05;101461.81;;;13.93;79.75
49779;BME280;36217;60.232;24.776;2022-07-30T01:38:35;101464.54;;;13.82;80.16
49779;BME280;36217;60.232;24.776;2022-07-30T01:41:03;101460.61;;;13.83;80.10
49779;BME280;36217;60.232;24.776;2022-07-30T01:43:34;101458.74;;;14.06;79.88
49779;BME280;36217;60.232;24.776;2022-07-30T01:46:01;101454.27;;;12.79;83.87
49779;BME280;36217;60.232;24.776;2022-07-30T01:48:29;101454.75;;;14.06;80.91
49779;BME280;36217;60.232;24.776;2022-07-30T01:51:02;101454.88;;;13.78;80.66
49779;BME280;36217;60.232;24.776;2022-07-30T01:53:33;101450.36;;;13.84;79.60
49779;BME280;36217;60.232;24.776;2022-07-30T01:56:03;101448.18;;;14.11;79.56
49779;BME280;36217;60.232;24.776;2022-07-30T01:58:34;101450.63;;;13.89;79.41
49779;BME280;36217;60.232;24.776;2022-07-30T02:01:01;101454.17;;;13.83;79.33
49779;BME280;36217;60.232;24.776;2022-07-30T02:03:28;101454.34;;;13.66;80.14
49779;BME280;36217;60.232;24.776;2022-07-30T02:05:58;101456.95;;;13.55;80.47
49779;BME280;36217;60.232;24.776;2022-07-30T02:08:33;101454.56;;;13.79;81.44
49779;BME280;36217;60.232;24.776;2022-07-30T02:11:05;101454.78;;;13.78;82.03
49779;BME280;36217;60.232;24.776;2022-07-30T02:13:34;101454.81;;;13.93;81.12
49779;BME280;36217;60.232;24.776;2022-07-30T02:16:07;101454.90;;;13.51;81.74
49779;BME280;36217;60.232;24.776;2022-07-30T02:18:49;101453.80;;;13.60;80.33
49779;BME280;36217;60.232;24.776;2022-07-30T02:21:19;101455.02;;;13.21;81.46
49779;BME280;36217;60.232;24.776;2022-07-30T02:23:47;101454.71;;;14.05;80.46
49779;BME280;36217;60.232;24.776;2022-07-30T02:26:18;101454.62;;;13.41;80.87
49779;BME280;36217;60.232;24.776;2022-07-30T02:28:48;101458.40;;;13.75;79.80
49779;BME280;36217;60.232;24.776;2022-07-30T02:31:21;101457.85;;;14.12;80.04
49779;BME280;36217;60.232;24.776;2022-07-30T02:33:50;101455.82;;;14.31;79.39
49779;BME280;36217;60.232;24.776;2022-07-30T02:36:19;101458.09;;;14.01;78.49
49779;BME280;36217;60.232;24.776;2022-07-30T02:38:48;101459.33;;;14.38;77.27
49779;BME280;36217;60.232;24.776;2022-07-30T02:41:17;101458.41;;;14.40;77.91
49779;BME280;36217;60.232;24.776;2022-07-30T02:43:47;101456.17;;;13.85;78.69
49779;BME280;36217;60.232;24.776;2022-07-30T02:46:15;101457.83;;;15.02;75.11
49779;BME280;36217;60.232;24.776;2022-07-30T02:48:43;101459.42;;;14.69;75.93
49779;BME280;36217;60.232;24.776;2022-07-30T02:51:15;101458.38;;;15.23;73.97
49779;BME280;36217;60.232;24.776;2022-07-30T02:53:42;101455.60;;;15.53;72.94
49779;BME280;36217;60.232;24.776;2022-07-30T02:56:11;101456.92;;;15.85;72.06
49779;BME280;36217;60.232;24.776;2022-07-30T02:58:39;101455.06;;;15.38;72.67
49779;BME280;36217;60.232;24.776;2022-07-30T03:01:08;101456.35;;;15.45;71.79
49779;BME280;36217;60.232;24.776;2022-07-30T03:03:36;101457.13;;;15.63;71.24
49779;BME280;36217;60.232;24.776;2022-07-30T03:06:04;101455.98;;;15.82;71.06
49779;BME280;36217;60.232;24.776;2022-07-30T03:08:33;101453.40;;;16.20;69.93
49779;BME280;36217;60.232;24.776;2022-07-30T03:11:02;101458.24;;;16.17;69.51
49779;BME280;36217;60.232;24.776;2022-07-30T03:13:30;101456.81;;;16.07;69.58
49779;BME280;36217;60.232;24.776;2022-07-30T03:15:57;101458.38;;;16.39;68.37
49779;BME280;36217;60.232;24.776;2022-07-30T03:18:27;101457.95;;;16.25;68.58
49779;BME280;36217;60.232;24.776;2022-07-30T03:20:58;101459.87;;;16.28;68.68
49779;BME280;36217;60.232;24.776;2022-07-30T03:23:25;101460.17;;;17.19;66.32
49779;BME280;36217;60.232;24.776;2022-07-30T03:25:56;101458.44;;;17.32;64.35
49779;BME280;36217;60.232;24.776;2022-07-30T03:28:25;101458.69;;;18.09;61.56
49779;BME280;36217;60.232;24.776;2022-07-30T03:30:53;101456.52;;;18.24;61.19
49779;BME280;36217;60.232;24.776;2022-07-30T03:33:21;101459.12;;;18.44;60.50
49779;BME280;36217;60.232;24.776;2022-07-30T03:35:48;101456.14;;;18.33;60.12
49779;BME280;36217;60.232;24.776;2022-07-30T03:38:17;101458.39;;;18.24;59.38
49779;BME280;36217;60.232;24.776;2022-07-30T03:40:45;101452.43;;;18.57;59.30
49779;BME280;36217;60.232;24.776;2022-07-30T03:43:13;101448.70;;;18.99;58.43
49779;BME280;36217;60.232;24.776;2022-07-30T03:45:41;101450.59;;;18.06;59.23
49779;BME280;36217;60.232;24.776;2022-07-30T03:48:10;101448.33;;;18.03;59.69
49779;BME280;36217;60.232;24.776;2022-07-30T03:50:39;101449.99;;;18.61;58.53
49779;BME280;36217;60.232;24.776;2022-07-30T03:53:08;101447.41;;;19.19;57.21
49779;BME280;36217;60.232;24.776;2022-07-30T03:55:35;101446.80;;;19.16;56.93
49779;BME280;36217;60.232;24.776;2022-07-30T03:58:02;101446.98;;;17.42;61.76
49779;BME280;36217;60.232;24.776;2022-07-30T04:00:29;101443.83;;;17.04;62.66
49779;BME280;36217;60.232;24.776;2022-07-30T04:02:56;101444.49;;;17.58;62.00
49779;BME280;36217;60.232;24.776;2022-07-30T04:05:23;101441.86;;;16.84;63.81
49779;BME280;36217;60.232;24.776;2022-07-30T04:07:50;101441.56;;;16.10;65.72
49779;BME280;36217;60.232;24.776;2022-07-30T04:10:17;101441.19;;;16.44;66.91
49779;BME280;36217;60.232;24.776;2022-07-30T04:12:43;101438.72;;;17.25;64.67
49779;BME280;36217;60.232;24.776;2022-07-30T04:15:10;101439.51;;;17.02;65.37
49779;BME280;36217;60.232;24.776;2022-07-30T04:17:41;101440.41;;;16.69;66.37
49779;BME280;36217;60.232;24.776;2022-07-30T04:20:13;101436.94;;;16.89;65.82
49779;BME280;36217;60.232;24.776;2022-07-30T04:22:41;101433.11;;;17.32;64.30
49779;BME280;36217;60.232;24.776;2022-07-30T04:25:10;101430.87;;;17.28;63.55
49779;BME280;36217;60.232;24.776;2022-07-30T04:27:38;101431.76;;;18.05;62.85
49779;BME280;36217;60.232;24.776;2022-07-30T04:30:06;101430.92;;;18.22;61.64
49779;BME280;36217;60.232;24.776;2022-07-30T04:32:34;101431.84;;;18.06;62.12
49779;BME280;36217;60.232;24.776;2022-07-30T04:35:01;101426.80;;;17.09;63.60
49779;BME280;36217;60.232;24.776;2022-07-30T04:37:27;101426.70;;;17.60;62.38
49779;BME280;36217;60.232;24.776;2022-07-30T04:39:55;101426.19;;;17.98;62.75
49779;BME280;36217;60.232;24.776;2022-07-30T04:42:22;101424.80;;;18.16;62.43
49779;BME280;36217;60.232;24.776;2022-07-30T04:44:50;101425.76;;;18.43;60.92
49779;BME280;36217;60.232;24.776;2022-07-30T04:47:17;101424.26;;;18.23;61.00
49779;BME280;36217;60.232;24.776;2022-07-30T04:49:45;101424.90;;;17.70;62.45
49779;BME280;36217;60.232;24.776;2022-07-30T04:52:13;101423.77;;;17.31;63.43
49779;BME280;36217;60.232;24.776;2022-07-30T04:54:44;101425.19;;;17.07;63.98
49779;BME280;36217;60.232;24.776;2022-07-30T04:57:12;101425.43;;;17.66;63.66
49779;BME280;36217;60.232;24.776;2022-07-30T04:59:40;101427.80;;;18.00;62.87
49779;BME280;36217;60.232;24.776;2022-07-30T05:02:08;101427.00;;;18.49;61.36
49779;BME280;36217;60.232;24.776;2022-07-30T05:04:37;101423.73;;;18.48;60.78
49779;BME280;36217;60.232;24.776;2022-07-30T05:07:06;101423.86;;;18.67;59.15
49779;BME280;36217;60.232;24.776;2022-07-30T05:09:33;101422.98;;;17.43;61.80
49779;BME280;36217;60.232;24.776;2022-07-30T05:12:01;101419.95;;;17.96;61.00
49779;BME280;36217;60.232;24.776;2022-07-30T05:14:27;101421.42;;;18.23;60.27
49779;BME280;36217;60.232;24.776;2022-07-30T05:16:54;101416.01;;;18.60;59.53
49779;BME280;36217;60.232;24.776;2022-07-30T05:19:22;101412.99;;;18.95;58.73
49779;BME280;36217;60.232;24.776;2022-07-30T05:21:50;101411.24;;;19.06;57.91
49779;BME280;36217;60.232;24.776;2022-07-30T05:24:17;101409.10;;;19.59;56.55
49779;BME280;36217;60.232;24.776;2022-07-30T05:26:44;101409.76;;;18.94;57.52
49779;BME280;36217;60.232;24.776;2022-07-30T05:29:11;101406.89;;;19.22;56.40
49779;BME280;36217;60.232;24.776;2022-07-30T05:31:38;101403.62;;;19.50;55.80
49779;BME280;36217;60.232;24.776;2022-07-30T05:34:05;101405.55;;;19.56;55.84
49779;BME280;36217;60.232;24.776;2022-07-30T05:36:33;101403.42;;;19.36;55.84
49779;BME280;36217;60.232;24.776;2022-07-30T05:39:00;101401.40;;;19.71;54.87
49779;BME280;36217;60.232;24.776;2022-07-30T05:41:27;101402.90;;;19.45;54.43
49779;BME280;36217;60.232;24.776;2022-07-30T05:43:54;101401.29;;;19.66;54.37
49779;BME280;36217;60.232;24.776;2022-07-30T05:46:21;101399.16;;;18.76;55.27
49779;BME280;36217;60.232;24.776;2022-07-30T05:48:47;101407.21;;;18.92;55.11
49779;BME280;36217;60.232;24.776;2022-07-30T05:51:14;101403.79;;;19.16;54.45
49779;BME280;36217;60.232;24.776;2022-07-30T05:53:41;101406.47;;;18.23;55.51
49779;BME280;36217;60.232;24.776;2022-07-30T05:56:08;101399.68;;;18.57;55.87
49779;BME280;36217;60.232;24.776;2022-07-30T05:58:35;101405.45;;;18.72;56.08
49779;BME280;36217;60.232;24.776;2022-07-30T06:01:02;101411.78;;;19.06;55.76
49779;BME280;36217;60.232;24.776;2022-07-30T06:03:28;101400.43;;;19.13;55.38
49779;BME280;36217;60.232;24.776;2022-07-30T06:05:55;101413.87;;;19.70;55.23
49779;BME280;36217;60.232;24.776;2022-07-30T06:08:22;101410.85;;;18.87;55.34
49779;BME280;36217;60.232;24.776;2022-07-30T06:10:49;101416.32;;;19.04;54.36
49779;BME280;36217;60.232;24.776;2022-07-30T06:13:16;101414.00;;;19.02;54.06
49779;BME280;36217;60.232;24.776;2022-07-30T06:15:42;101424.38;;;17.91;56.42
49779;BME280;36217;60.232;24.776;2022-07-30T06:18:09;101420.23;;;18.43;56.48
49779;BME280;36217;60.232;24.776;2022-07-30T06:20:36;101419.08;;;18.60;56.41
49779;BME280;36217;60.232;24.776;2022-07-30T06:23:03;101419.07;;;18.95;55.78
49779;BME280;36217;60.232;24.776;2022-07-30T06:25:30;101421.05;;;18.72;54.98
49779;BME280;36217;60.232;24.776;2022-07-30T06:27:57;101418.66;;;18.74;54.91
49779;BME280;36217;60.232;24.776;2022-07-30T06:30:24;101422.56;;;18.87;53.76
49779;BME280;36217;60.232;24.776;2022-07-30T06:32:50;101419.03;;;18.50;55.51
49779;BME280;36217;60.232;24.776;2022-07-30T06:35:17;101419.12;;;18.63;54.90
49779;BME280;36217;60.232;24.776;2022-07-30T06:37:44;101419.81;;;18.66;54.67
49779;BME280;36217;60.232;24.776;2022-07-30T06:40:12;101434.16;;;19.02;54.70
49779;BME280;36217;60.232;24.776;2022-07-30T06:42:38;101420.63;;;18.90;55.27
49779;BME280;36217;60.232;24.776;2022-07-30T06:45:06;101422.32;;;18.56;56.34
49779;BME280;36217;60.232;24.776;2022-07-30T06:47:34;101421.64;;;18.36;57.25
49779;BME280;36217;60.232;24.776;2022-07-30T06:50:01;101418.40;;;18.44;56.90
49779;BME280;36217;60.232;24.776;2022-07-30T06:52:28;101416.55;;;18.14;57.70
49779;BME280;36217;60.232;24.776;2022-07-30T06:54:54;101418.72;;;18.47;56.72
49779;BME280;36217;60.232;24.776;2022-07-30T06:57:21;101420.43;;;18.62;55.62
49779;BME280;36217;60.232;24.776;2022-07-30T06:59:48;101421.01;;;19.22;54.61
49779;BME280;36217;60.232;24.776;2022-07-30T07:02:15;101421.96;;;18.10;55.25
49779;BME280;36217;60.232;24.776;2022-07-30T07:04:41;101414.55;;;19.45;53.75
49779;BME280;36217;60.232;24.776;2022-07-30T07:07:08;101417.21;;;18.24;56.57
49779;BME280;36217;60.232;24.776;2022-07-30T07:09:35;101421.62;;;19.02;55.36
49779;BME280;36217;60.232;24.776;2022-07-30T07:12:02;101423.24;;;18.96;56.19
49779;BME280;36217;60.232;24.776;2022-07-30T07:14:29;101417.54;;;18.19;56.06
49779;BME280;36217;60.232;24.776;2022-07-30T07:16:55;101417.70;;;18.82;56.38
49779;BME280;36217;60.232;24.776;2022-07-30T07:19:23;101414.00;;;19.79;53.67
49779;BME280;36217;60.232;24.776;2022-07-30T07:21:50;101418.27;;;19.94;53.15
49779;BME280;36217;60.232;24.776;2022-07-30T07:24:17;101417.28;;;20.09;51.30
49779;BME280;36217;60.232;24.776;2022-07-30T07:26:44;101429.96;;;19.54;53.20
49779;BME280;36217;60.232;24.776;2022-07-30T07:29:11;101423.97;;;19.84;52.00
49779;BME280;36217;60.232;24.776;2022-07-30T07:31:38;101412.74;;;19.17;52.22
49779;BME280;36217;60.232;24.776;2022-07-30T07:34:05;101418.95;;;18.94;53.25
49779;BME280;36217;60.232;24.776;2022-07-30T07:36:31;101413.42;;;20.43;50.63
49779;BME280;36217;60.232;24.776;2022-07-30T07:38:58;101411.09;;;18.96;52.55
49779;BME280;36217;60.232;24.776;2022-07-30T07:41:25;101406.48;;;19.95;51.86
49779;BME280;36217;60.232;24.776;2022-07-30T07:43:52;101424.48;;;17.91;54.73
49779;BME280;36217;60.232;24.776;2022-07-30T07:46:19;101411.32;;;18.42;54.62
49779;BME280;36217;60.232;24.776;2022-07-30T07:48:45;101402.59;;;19.71;52.74
49779;BME280;36217;60.232;24.776;2022-07-30T07:51:12;101404.06;;;20.02;51.75
49779;BME280;36217;60.232;24.776;2022-07-30T07:53:39;101408.82;;;19.14;52.19
49779;BME280;36217;60.232;24.776;2022-07-30T07:56:06;101404.97;;;18.05;52.98
49779;BME280;36217;60.232;24.776;2022-07-30T07:58:33;101401.66;;;19.18;53.04
49779;BME280;36217;60.232;24.776;2022-07-30T08:00:59;101409.37;;;18.55;53.87
49779;BME280;36217;60.232;24.776;2022-07-30T08:03:26;101409.02;;;18.42;53.70
49779;BME280;36217;60.232;24.776;2022-07-30T08:05:53;101403.95;;;18.19;54.09
49779;BME280;36217;60.232;24.776;2022-07-30T08:08:20;101409.60;;;19.08;52.72
49779;BME280;36217;60.232;24.776;2022-07-30T08:10:47;101410.27;;;19.61;52.15
49779;BME280;36217;60.232;24.776;2022-07-30T08:13:14;101417.22;;;19.39;51.39
49779;BME280;36217;60.232;24.776;2022-07-30T08:15:40;101424.48;;;18.99;51.87
49779;BME280;36217;60.232;24.776;2022-07-30T08:18:07;101421.78;;;19.35;52.11
49779;BME280;36217;60.232;24.776;2022-07-30T08:20:34;101418.82;;;18.81;51.92
49779;BME280;36217;60.232;24.776;2022-07-30T08:23:01;101417.40;;;19.81;50.19
49779;BME280;36217;60.232;24.776;2022-07-30T08:25:27;101413.18;;;19.68;50.21
49779;BME280;36217;60.232;24.776;2022-07-30T08:27:54;101421.55;;;20.29;48.40
49779;BME280;36217;60.232;24.776;2022-07-30T08:30:21;101416.48;;;19.14;49.07
49779;BME280;36217;60.232;24.776;2022-07-30T08:32:53;101427.86;;;17.72;51.98
49779;BME280;36217;60.232;24.776;2022-07-30T08:35:20;101419.72;;;18.07;51.17
49779;BME280;36217;60.232;24.776;2022-07-30T08:37:47;101420.88;;;19.27;50.47
49779;BME280;36217;60.232;24.776;2022-07-30T08:40:17;101409.32;;;18.79;50.40
49779;BME280;36217;60.232;24.776;2022-07-30T08:42:44;101405.69;;;19.78;49.02
49779;BME280;36217;60.232;24.776;2022-07-30T08:45:12;101405.58;;;20.23;48.32
49779;BME280;36217;60.232;24.776;2022-07-30T08:47:40;101406.11;;;19.13;49.95
49779;BME280;36217;60.232;24.776;2022-07-30T08:50:11;101403.18;;;18.99;50.59
49779;BME280;36217;60.232;24.776;2022-07-30T08:52:39;101399.65;;;19.62;49.07
49779;BME280;36217;60.232;24.776;2022-07-30T08:55:06;101400.94;;;19.29;49.71
49779;BME280;36217;60.232;24.776;2022-07-30T08:57:34;101394.48;;;19.54;49.14
49779;BME280;36217;60.232;24.776;2022-07-30T09:00:03;101397.29;;;19.75;47.19
49779;BME280;36217;60.232;24.776;2022-07-30T09:02:32;101391.97;;;19.46;47.73
49779;BME280;36217;60.232;24.776;2022-07-30T09:04:59;101387.93;;;18.72;48.73
49779;BME280;36217;60.232;24.776;2022-07-30T09:07:26;101386.86;;;19.56;48.00
49779;BME280;36217;60.232;24.776;2022-07-30T09:09:54;101384.66;;;20.13;46.99
49779;BME280;36217;60.232;24.776;2022-07-30T09:12:38;101386.67;;;20.59;45.88
49779;BME280;36217;60.232;24.776;2022-07-30T09:15:10;101395.58;;;19.07;47.01
49779;BME280;36217;60.232;24.776;2022-07-30T09:17:46;101385.22;;;20.23;47.13
49779;BME280;36217;60.232;24.776;2022-07-30T09:20:14;101385.00;;;18.66;48.61
49779;BME280;36217;60.232;24.776;2022-07-30T09:22:42;101382.05;;;19.74;47.39
49779;BME280;36217;60.232;24.776;2022-07-30T09:25:09;101390.28;;;19.93;46.49
49779;BME280;36217;60.232;24.776;2022-07-30T09:27:45;101385.42;;;20.93;44.14
49779;BME280;36217;60.232;24.776;2022-07-30T09:30:12;101384.91;;;20.40;44.60
49779;BME280;36217;60.232;24.776;2022-07-30T09:32:48;101379.35;;;19.86;45.33
49779;BME280;36217;60.232;24.776;2022-07-30T09:35:16;101383.44;;;19.95;45.42
49779;BME280;36217;60.232;24.776;2022-07-30T09:37:43;101382.23;;;19.43;45.93
49779;BME280;36217;60.232;24.776;2022-07-30T09:40:12;101380.06;;;19.84;46.15
49779;BME280;36217;60.232;24.776;2022-07-30T09:42:38;101379.01;;;19.78;46.86
49779;BME280;36217;60.232;24.776;2022-07-30T09:45:07;101377.91;;;19.60;47.35
49779;BME280;36217;60.232;24.776;2022-07-30T09:47:36;101379.26;;;20.51;45.36
49779;BME280;36217;60.232;24.776;2022-07-30T09:50:05;101383.21;;;20.53;45.37
49779;BME280;36217;60.232;24.776;2022-07-30T09:52:33;101384.07;;;20.22;43.90
49779;BME280;36217;60.232;24.776;2022-07-30T09:55:00;101372.68;;;20.30;44.28
49779;BME280;36217;60.232;24.776;2022-07-30T09:57:27;101374.88;;;20.92;43.68
49779;BME280;36217;60.232;24.776;2022-07-30T09:59:55;101373.35;;;20.93;42.81
49779;BME280;36217;60.232;24.776;2022-07-30T10:02:28;101370.80;;;20.18;44.67
49779;BME280;36217;60.232;24.776;2022-07-30T10:05:08;101376.99;;;19.99;44.78
49779;BME280;36217;60.232;24.776;2022-07-30T10:07:35;101370.61;;;20.92;43.37
49779;BME280;36217;60.232;24.776;2022-07-30T10:10:02;101373.25;;;20.15;45.60
49779;BME280;36217;60.232;24.776;2022-07-30T10:12:31;101370.60;;;19.88;45.58
49779;BME280;36217;60.232;24.776;2022-07-30T10:15:00;101370.93;;;20.46;44.23
49779;BME280;36217;60.232;24.776;2022-07-30T10:17:30;101365.17;;;21.30;43.46
49779;BME280;36217;60.232;24.776;2022-07-30T10:19:57;101365.09;;;21.49;42.71
49779;BME280;36217;60.232;24.776;2022-07-30T10:22:24;101365.29;;;20.88;43.36
49779;BME280;36217;60.232;24.776;2022-07-30T10:24:52;101358.87;;;20.39;43.90
49779;BME280;36217;60.232;24.776;2022-07-30T10:27:19;101356.70;;;21.82;42.33
49779;BME280;36217;60.232;24.776;2022-07-30T10:29:48;101356.86;;;20.95;42.60
49779;BME280;36217;60.232;24.776;2022-07-30T10:32:16;101358.83;;;20.14;43.33
49779;BME280;36217;60.232;24.776;2022-07-30T10:34:43;101366.57;;;19.88;43.72
49779;BME280;36217;60.232;24.776;2022-07-30T10:37:11;101360.37;;;19.70;44.93
49779;BME280;36217;60.232;24.776;2022-07-30T10:39:44;101355.63;;;20.72;43.50
49779;BME280;36217;60.232;24.776;2022-07-30T10:42:27;101351.82;;;19.85;44.92
49779;BME280;36217;60.232;24.776;2022-07-30T10:45:11;101355.01;;;19.04;45.44
49779;BME280;36217;60.232;24.776;2022-07-30T10:47:42;101355.33;;;20.58;43.68
49779;BME280;36217;60.232;24.776;2022-07-30T10:50:11;101356.22;;;19.73;43.80
49779;BME280;36217;60.232;24.776;2022-07-30T10:52:44;101354.31;;;20.85;43.25
49779;BME280;36217;60.232;24.776;2022-07-30T10:55:13;101357.13;;;19.40;44.50
49779;BME280;36217;60.232;24.776;2022-07-30T10:57:57;101347.60;;;19.97;45.13
49779;BME280;36217;60.232;24.776;2022-07-30T11:00:23;101344.85;;;20.57;44.01
49779;BME280;36217;60.232;24.776;2022-07-30T11:03:23;101343.13;;;20.33;43.26
49779;BME280;36217;60.232;24.776;2022-07-30T11:05:52;101336.70;;;20.96;43.46
49779;BME280;36217;60.232;24.776;2022-07-30T11:08:49;101326.80;;;21.51;42.39
49779;BME280;36217;60.232;24.776;2022-07-30T11:11:48;101325.59;;;20.81;43.17
49779;BME280;36217;60.232;24.776;2022-07-30T11:14:15;101325.00;;;21.57;40.88
49779;BME280;36217;60.232;24.776;2022-07-30T11:16:58;101317.84;;;20.80;41.86
49779;BME280;36217;60.232;24.776;2022-07-30T11:19:25;101328.41;;;21.88;40.20
49779;BME280;36217;60.232;24.776;2022-07-30T11:22:24;101328.49;;;21.22;40.64
49779;BME280;36217;60.232;24.776;2022-07-30T11:24:52;101330.35;;;20.67;41.97
49779;BME280;36217;60.232;24.776;2022-07-30T11:27:37;101329.72;;;21.18;40.17
49779;BME280;36217;60.232;24.776;2022-07-30T11:30:29;101328.67;;;20.43;41.65
49779;BME280;36217;60.232;24.776;2022-07-30T11:33:20;101332.84;;;21.39;40.77
49779;BME280;36217;60.232;24.776;2022-07-30T11:36:05;101330.94;;;21.63;40.86
49779;BME280;36217;60.232;24.776;2022-07-30T11:39:04;101326.93;;;21.38;40.06
49779;BME280;36217;60.232;24.776;2022-07-30T11:41:32;101327.30;;;21.34;40.62
49779;BME280;36217;60.232;24.776;2022-07-30T11:44:31;101328.08;;;20.57;40.69
49779;BME280;36217;60.232;24.776;2022-07-30T11:46:58;101317.23;;;21.25;40.12
49779;BME280;36217;60.232;24.776;2022-07-30T11:49:33;101322.52;;;20.55;41.24
49779;BME280;36217;60.232;24.776;2022-07-30T11:52:00;101324.07;;;20.34;42.08
49779;BME280;36217;60.232;24.776;2022-07-30T11:54:27;101330.19;;;20.60;42.10
49779;BME280;36217;60.232;24.776;2022-07-30T11:56:55;101336.80;;;20.67;41.56
49779;BME280;36217;60.232;24.776;2022-07-30T11:59:22;101338.72;;;20.60;41.58
49779;BME280;36217;60.232;24.776;2022-07-30T12:01:50;101343.53;;;19.90;43.95
49779;BME280;36217;60.232;24.776;2022-07-30T12:04:18;101344.61;;;20.39;43.19
49779;BME280;36217;60.232;24.776;2022-07-30T12:06:47;101346.55;;;20.22;44.15
49779;BME280;36217;60.232;24.776;2022-07-30T12:09:20;101344.69;;;20.21;44.40
49779;BME280;36217;60.232;24.776;2022-07-30T12:11:47;101344.52;;;20.90;43.83
49779;BME280;36217;60.232;24.776;2022-07-30T12:14:14;101344.52;;;20.85;44.54
49779;BME280;36217;60.232;24.776;2022-07-30T12:16:48;101341.62;;;20.36;45.83
49779;BME280;36217;60.232;24.776;2022-07-30T12:19:15;101336.47;;;20.64;45.63
49779;BME280;36217;60.232;24.776;2022-07-30T12:21:42;101339.18;;;21.63;44.60
49779;BME280;36217;60.232;24.776;2022-07-30T12:24:09;101338.71;;;21.61;44.71
49779;BME280;36217;60.232;24.776;2022-07-30T12:26:36;101333.32;;;20.95;45.22
49779;BME280;36217;60.232;24.776;2022-07-30T12:29:04;101334.90;;;21.33;45.30
49779;BME280;36217;60.232;24.776;2022-07-30T12:31:32;101334.72;;;22.10;44.27
49779;BME280;36217;60.232;24.776;2022-07-30T12:33:59;101341.79;;;21.62;45.19
49779;BME280;36217;60.232;24.776;2022-07-30T12:36:29;101329.76;;;20.97;45.90
49779;BME280;36217;60.232;24.776;2022-07-30T12:38:56;101335.37;;;21.23;45.66
49779;BME280;36217;60.232;24.776;2022-07-30T12:41:23;101337.98;;;21.28;45.84
49779;BME280;36217;60.232;24.776;2022-07-30T12:44:06;101338.34;;;20.38;46.92
49779;BME280;36217;60.232;24.776;2022-07-30T12:46:38;101334.82;;;20.22;47.00
49779;BME280;36217;60.232;24.776;2022-07-30T12:49:06;101342.99;;;20.32;46.48
49779;BME280;36217;60.232;24.776;2022-07-30T12:51:35;101341.65;;;20.37;46.87